Kensington, Kansas
Current Conditions -  °F | °C
As of 6:55 PM on Friday 24 Oct 2014 (Local Time) from KHDE Reporting Station
Clear Clear  
Wind Chill: 75°   Ceiling: Unl
Heat Index: 75°   Visibility: 10mi
Dew Point: 31°   Wind: 0mph
Humidity: 20%   Direction: NA
Pressure: 29.98"   Gusts: NA
Location:  39.77°N, 99.03°W
Report Text: KHDE 242355Z AUTO 00000KT 10SM CLR 24/00 A2998 RMK AO2 T02401003 10290 20240
Loading
Personal Weather Stations






























Interactive Weather Map
Tropical Storm Tracking
New forecast layout! Learn more

10-Day Weather Forecast

Advertisements
Track Severe Weather on mobile